createdAt,value
2023-04-02T09:06:43.795Z,97.40
2023-04-02T09:09:14.151Z,97.10
2023-04-02T09:11:50.337Z,97.50
2023-04-02T09:14:21.074Z,97.40
2023-04-02T09:16:52.342Z,97.20
2023-04-02T09:19:23.278Z,97.20
2023-04-02T09:22:05.955Z,97.10
2023-04-02T09:24:33.843Z,97.00
2023-04-02T09:27:02.137Z,97.00
2023-04-02T09:29:40.848Z,96.90
2023-04-02T09:32:22.427Z,96.90
2023-04-02T09:34:50.352Z,96.80
2023-04-02T09:37:22.757Z,96.80
2023-04-02T09:39:50.917Z,96.60
2023-04-02T09:42:33.970Z,96.70
2023-04-02T09:45:15.513Z,96.60
2023-04-02T09:47:43.663Z,96.70
2023-04-02T09:50:29.626Z,96.70
2023-04-02T09:52:59.022Z,96.90
2023-04-02T09:55:29.071Z,96.90
2023-04-02T09:58:18.535Z,96.90
2023-04-02T10:00:54.029Z,96.90
2023-04-02T10:03:26.010Z,96.90
2023-04-02T10:06:08.855Z,96.90
2023-04-02T10:08:40.618Z,96.80
2023-04-02T10:11:12.765Z,96.70
2023-04-02T10:13:50.447Z,96.80
2023-04-02T10:16:27.177Z,96.80
2023-04-02T10:18:59.304Z,96.80
2023-04-02T10:21:29.763Z,96.80
2023-04-02T10:23:59.496Z,97.00
2023-04-02T10:27:03.004Z,96.80
2023-04-02T10:30:05.078Z,97.00
2023-04-02T10:32:38.487Z,96.80
2023-04-02T10:35:15.681Z,97.00
2023-04-02T10:38:08.127Z,97.00
2023-04-02T10:40:41.146Z,97.00
2023-04-02T10:43:44.141Z,97.00
2023-04-02T10:46:24.459Z,96.70
2023-04-02T10:49:00.799Z,96.90
2023-04-02T10:51:34.673Z,96.80
2023-04-02T10:54:13.935Z,96.80
2023-04-02T10:56:50.941Z,96.70
2023-04-02T10:59:24.430Z,96.70
2023-04-02T11:01:55.272Z,96.60
2023-04-02T11:04:28.409Z,96.60
2023-04-02T11:07:13.211Z,96.60
2023-04-02T11:09:45.516Z,96.60
2023-04-02T11:12:24.287Z,96.40
2023-04-02T11:14:53.350Z,96.30
2023-04-02T11:17:22.428Z,96.40
2023-04-02T11:19:50.429Z,96.50
2023-04-02T11:22:21.313Z,96.40
2023-04-02T11:24:51.056Z,96.40
2023-04-02T11:27:26.310Z,96.20
2023-04-02T11:30:02.559Z,96.30
2023-04-02T11:32:37.178Z,96.30
2023-04-02T11:35:28.104Z,96.30
2023-04-02T11:37:57.398Z,96.10
2023-04-02T11:40:46.639Z,96.10
2023-04-02T11:44:02.557Z,96.10
2023-04-02T11:46:46.168Z,96.00
2023-04-02T11:49:35.849Z,96.00
2023-04-02T11:52:12.043Z,96.10
2023-04-02T11:54:41.445Z,95.80
2023-04-02T11:57:24.031Z,95.80
2023-04-02T12:00:13.707Z,95.90
2023-04-02T12:02:54.124Z,95.80
2023-04-02T12:05:28.102Z,95.70
2023-04-02T12:08:13.464Z,95.40
2023-04-02T12:10:53.334Z,95.60
2023-04-02T12:13:22.406Z,95.70
2023-04-02T12:15:53.552Z,95.60
2023-04-02T12:18:24.722Z,95.60
2023-04-02T12:20:55.044Z,95.60
2023-04-02T12:23:27.410Z,95.50
2023-04-02T12:25:59.371Z,95.80
2023-04-02T12:28:29.965Z,96.00
2023-04-02T12:31:16.569Z,95.60
2023-04-02T12:33:45.141Z,95.80
2023-04-02T12:36:21.949Z,95.70
2023-04-02T12:38:51.895Z,96.10
2023-04-02T12:41:24.305Z,95.80
2023-04-02T12:43:59.089Z,95.90
2023-04-02T12:46:29.265Z,95.70
2023-04-02T12:49:07.232Z,95.70
2023-04-02T12:51:36.828Z,95.90
2023-04-02T12:54:05.364Z,95.70
2023-04-02T12:56:33.301Z,95.50
2023-04-02T12:59:01.946Z,95.50
2023-04-02T13:01:33.837Z,95.80
2023-04-02T13:04:04.361Z,95.70
2023-04-02T13:06:34.676Z,95.70
2023-04-02T13:09:04.504Z,95.70
2023-04-02T13:11:37.128Z,95.70
2023-04-02T13:14:07.369Z,95.80
2023-04-02T13:16:38.091Z,95.80
2023-04-02T13:19:28.929Z,95.80
2023-04-02T13:21:58.554Z,95.90
2023-04-02T13:24:28.301Z,96.10
2023-04-02T13:26:58.024Z,96.20
2023-04-02T13:29:28.476Z,96.20
2023-04-02T13:32:00.403Z,96.20
2023-04-02T13:34:28.753Z,96.20
2023-04-02T13:36:57.348Z,96.30
2023-04-02T13:39:25.364Z,96.40
2023-04-02T13:41:56.632Z,96.40
2023-04-02T13:44:26.205Z,96.50
2023-04-02T13:46:55.653Z,96.60
2023-04-02T13:49:26.184Z,96.40
2023-04-02T13:51:57.875Z,96.60
2023-04-02T13:54:29.472Z,96.80
2023-04-02T13:56:58.548Z,96.80
2023-04-02T13:59:27.069Z,97.00
2023-04-02T14:01:57.485Z,97.10
2023-04-02T14:04:30.665Z,97.20
2023-04-02T14:07:23.568Z,97.10
2023-04-02T14:10:01.712Z,97.30
2023-04-02T14:12:42.033Z,97.50
2023-04-02T14:15:29.025Z,97.20
2023-04-02T14:18:17.311Z,97.10
2023-04-02T14:20:55.028Z,97.20
2023-04-02T14:23:38.301Z,97.20
2023-04-02T14:26:14.882Z,97.20
2023-04-02T14:28:51.457Z,97.30
2023-04-02T14:31:28.749Z,97.20
2023-04-02T14:34:04.135Z,97.40
2023-04-02T14:36:42.029Z,97.50
2023-04-02T14:39:18.512Z,97.50
2023-04-02T14:41:51.491Z,97.50
2023-04-02T14:44:22.436Z,97.60
2023-04-02T14:46:57.439Z,97.60
2023-04-02T14:49:26.443Z,97.60
2023-04-02T14:52:04.684Z,97.70
2023-04-02T14:54:36.008Z,97.60
2023-04-02T14:57:11.238Z,97.50
2023-04-02T14:59:51.655Z,97.50
2023-04-02T15:02:23.609Z,97.60
2023-04-02T15:04:59.509Z,97.80
2023-04-02T15:07:37.057Z,97.80
2023-04-02T15:10:11.606Z,97.80
2023-04-02T15:12:41.837Z,97.50
2023-04-02T15:15:26.796Z,97.50
2023-04-02T15:18:03.119Z,97.60
2023-04-02T15:20:39.103Z,97.50
2023-04-02T15:23:15.638Z,97.50
2023-04-02T15:25:49.738Z,97.60
2023-04-02T15:28:27.861Z,97.50
2023-04-02T15:30:58.856Z,97.40
2023-04-02T15:33:42.704Z,97.30
2023-04-02T15:36:40.258Z,97.50
2023-04-02T15:39:24.090Z,97.40
2023-04-02T15:42:02.465Z,97.50
2023-04-02T15:44:30.630Z,97.40
2023-04-02T15:47:04.696Z,96.90
2023-04-02T15:49:42.740Z,97.20
2023-04-02T15:52:16.401Z,97.40
2023-04-02T15:54:56.795Z,97.40
2023-04-02T15:57:41.643Z,97.50
2023-04-02T16:00:23.807Z,97.20
2023-04-02T16:03:22.892Z,97.10
2023-04-02T16:06:10.730Z,97.40
2023-04-02T16:08:52.929Z,97.40
2023-04-02T16:11:22.198Z,97.20
2023-04-02T16:13:50.141Z,97.20
2023-04-02T16:16:22.980Z,97.10
2023-04-02T16:18:57.574Z,97.30
2023-04-02T16:21:30.022Z,97.20
2023-04-02T16:23:57.929Z,97.20
2023-04-02T16:26:41.997Z,97.00
2023-04-02T16:29:23.197Z,97.30
2023-04-02T16:31:57.874Z,97.10
2023-04-02T16:34:37.576Z,96.90
2023-04-02T16:37:17.498Z,97.20
2023-04-02T16:39:53.693Z,97.20
2023-04-02T16:42:34.137Z,97.10
2023-04-02T16:45:14.481Z,97.10
2023-04-02T16:48:01.494Z,97.10
2023-04-02T16:50:38.596Z,97.50
2023-04-02T16:53:20.266Z,97.10
2023-04-02T16:56:00.281Z,97.40
2023-04-02T16:58:43.531Z,97.10
2023-04-02T17:01:20.731Z,97.10
2023-04-02T17:04:09.124Z,97.00
2023-04-02T17:06:42.826Z,97.10
2023-04-02T17:09:17.324Z,96.90
2023-04-02T17:11:50.595Z,97.00
2023-04-02T17:14:30.070Z,97.00
2023-04-02T17:17:02.108Z,97.20
2023-04-02T17:19:31.332Z,97.00
2023-04-02T17:22:01.925Z,97.10
2023-04-02T17:24:34.784Z,97.00
2023-04-02T17:27:09.467Z,96.70
2023-04-02T17:29:41.190Z,97.30
2023-04-02T17:32:19.298Z,97.30
2023-04-02T17:34:47.183Z,97.30
2023-04-02T17:37:27.540Z,97.00
2023-04-02T17:40:06.707Z,97.40
2023-04-02T17:42:48.528Z,97.40
2023-04-02T17:45:24.295Z,97.30
2023-04-02T17:48:02.681Z,97.40
2023-04-02T17:50:46.076Z,97.20
2023-04-02T17:53:22.639Z,97.20
2023-04-02T17:56:01.191Z,97.30
2023-04-02T17:58:49.761Z,97.10
2023-04-02T18:01:25.994Z,97.30
2023-04-02T18:04:05.602Z,97.10
2023-04-02T18:06:40.021Z,97.10
2023-04-02T18:09:21.293Z,97.10
2023-04-02T18:12:00.487Z,97.00
2023-04-02T18:14:43.898Z,97.00
2023-04-02T18:17:21.357Z,97.00
2023-04-02T18:19:55.270Z,97.00
2023-04-02T18:22:31.066Z,97.00
2023-04-02T18:25:32.242Z,96.20
2023-04-02T18:28:13.141Z,96.50
2023-04-02T18:30:48.177Z,94.80
2023-04-02T18:33:26.666Z,94.80
2023-04-02T18:36:00.648Z,94.30
2023-04-02T18:38:36.009Z,95.30
2023-04-02T18:41:14.950Z,95.70
2023-04-02T18:43:57.354Z,95.90
2023-04-02T18:46:35.027Z,96.20
2023-04-02T18:49:14.748Z,96.20
2023-04-02T18:51:42.788Z,96.70
2023-04-02T18:54:16.800Z,96.60
2023-04-02T18:56:44.711Z,97.00
2023-04-02T18:59:33.381Z,96.90
2023-04-02T19:02:17.600Z,96.90
2023-04-02T19:04:57.950Z,97.30
2023-04-02T19:07:30.213Z,97.40
2023-04-02T19:10:02.690Z,97.40
2023-04-02T19:12:33.740Z,97.40
2023-04-02T19:15:01.653Z,97.00
2023-04-02T19:17:37.062Z,97.30
2023-04-02T19:20:14.596Z,97.60
2023-04-02T19:22:53.680Z,97.40
2023-04-02T19:25:41.158Z,97.50
2023-04-02T19:28:18.001Z,97.60
2023-04-02T19:30:59.216Z,97.60
2023-04-02T19:33:43.357Z,97.70
2023-04-02T19:36:47.211Z,97.60
2023-04-02T19:39:52.140Z,97.70
2023-04-02T19:42:31.489Z,97.60
2023-04-02T19:44:59.763Z,97.80
2023-04-02T19:47:27.775Z,97.70
2023-04-02T19:49:56.595Z,97.80
2023-04-02T19:52:26.056Z,97.80
2023-04-02T19:54:54.056Z,97.70
2023-04-02T19:57:22.082Z,97.80
2023-04-02T19:59:49.994Z,98.00
2023-04-02T20:02:17.887Z,98.00
2023-04-02T20:04:45.834Z,97.90
2023-04-02T20:07:13.765Z,97.80
2023-04-02T20:09:43.162Z,97.90
2023-04-02T20:12:11.498Z,98.10
2023-04-02T20:14:39.603Z,97.80
2023-04-02T20:17:07.502Z,98.00
2023-04-02T20:19:35.561Z,98.10
2023-04-02T20:22:03.450Z,98.00
2023-04-02T20:24:31.365Z,98.50
2023-04-02T20:27:00.586Z,98.10
2023-04-02T20:29:30.694Z,98.40
2023-04-02T20:31:58.632Z,98.30
2023-04-02T20:34:26.776Z,98.20
2023-04-02T20:36:54.797Z,98.10
2023-04-02T20:39:22.702Z,98.40
2023-04-02T20:41:50.687Z,98.50
2023-04-02T20:44:19.922Z,98.30
2023-04-02T20:46:47.798Z,98.50
2023-04-02T20:49:15.673Z,98.20
2023-04-02T20:51:43.610Z,98.40
2023-04-02T20:54:11.503Z,98.30
2023-04-02T20:56:39.685Z,98.40
2023-04-02T20:59:07.565Z,98.40
2023-04-02T21:01:37.535Z,98.40
2023-04-02T21:04:05.765Z,98.60
2023-04-02T21:06:35.760Z,98.40
2023-04-02T21:09:08.187Z,98.40
2023-04-02T21:11:37.174Z,98.50
2023-04-02T21:14:05.381Z,98.30
2023-04-02T21:16:33.721Z,98.40
2023-04-02T21:19:05.561Z,98.30
2023-04-02T21:21:33.971Z,98.60
2023-04-02T21:24:03.906Z,98.40
2023-04-02T21:26:34.826Z,98.50
